Burlington, NC

02:57 AM EST die 08o December, anno 2016 (GMT -0500)
Somerton | | Change Station

Elev 653 ft 36.08 °N, 79.50 °W | Updated 5 seconds ago

Overcast
Aequaliter Nubila
42.4 °F
Feels Like 42 °F
N
0.0
Ventus Variabilis Ventus from Inter Austrum et Zephyrum
Gusts 0.0 mph

Hodie
High -- | Low -- °F
--% Chance of Precip.
Yesterday
High -- | Low -- °F
Precip. -- in
Pressio 30.03 in
Visibilitas 10.0 milia passuum
Clouds Aequaliter Nubila 4200 ft
Frigus Venti 42 °F
Frigus in quo Ros apparet 42 °F
Umor 97%
Rainfall 0.00 in
Snow Depth Not available.
7:16 AM 5:03 PM
First Quarter, 61% visible
METAR KBUY 080754Z AUTO 00000KT 10SM OVC042 07/06 A3003 RMK AO2 SLP168 T00670056
Pressio 30.03 in
Visibilitas 10.0 milia passuum
Clouds Aequaliter Nubila 4200 ft
Frigus Venti 42 °F
Frigus in quo Ros apparet 42 °F
Umor 97%
Rainfall 0.00 in
Snow Depth Not available.
7:16 AM 5:03 PM
First Quarter, 61% visible
METAR KBUY 080754Z AUTO 00000KT 10SM OVC042 07/06 A3003 RMK AO2 SLP168 T00670056

10-Day Weather Forecast

Almanac

Astronomy

Dec. 08, 2016 Rise Set
Actual Time
Civil Twilight
Nautical Twilight
Astronomical Twilight
Moon
Length Of Visible Light
Length of Day
Tomorrow will be .
, % of the Moon is Illuminated

Today's Extremes

State Highs State Lows

Community

WunderPhotos

Upload Photos

1,956,259 photos uploaded!

WunderBlog® & News

Nearby

Air Quality

  Air Quality AQ Index Pollutant
Not available.

Snow Depth

Station Depth Elevation

Earthquake Activity

City Distance Mag. Time & Date
Minimum magnitude displayed is 2.5.

Coastal Water Temperatures

Locus Calor

Stations

Nearby Weather Stations

Station Location Temp Frigus Venti Frigus in quo Ros apparet Umor Ventus Precip. Elev Renovata Type
                   

Watches & Warnings

There are currently no watches in effect.